Historyczne dane pomiarowe

Dodano dane terminowe – wersja testowa.

Dane z okresu 1951-2019

Wersja bazy: 1.34 [2019-03-16, lista zmian], aktualizacja planowana na 2019-04-15

Dane meteo z obszaru Polski uzyskane na podstawie danych udostępnionych przez Instytut Meteorologii i Gospodarki Wodnej – Państwowy Instytut Badawczy.

 

Wybierz Datę:    

       

TemperaturaWilgotnośćWiatrCiśnienieOpadyŚniegCzas trwania zjawisk
 Stacja t tx tn tng RH VA  wxwx mslp ppp RRR   cm mm wxwxwxwxwxwxwx
1973-08-13 16.6 22.6 9.3 5.6-- 1.0 2.0---- 0.0------------
1973-08-14 16.6 24.1 5.2 2.5-- 0.0 1.0---- 0.0------------
1973-08-15 17.4 24.2 10.2 7.3-- 1.7 1.3---- 0.0------------
1973-08-16 18.9 26.3 11.3 8.1-- 0.0 2.3---- 0.0------------
1973-08-17 19.7 28.6 11.1 7.4-- 0.0 1.3---- 0.0------------
1973-08-18 20.2 29.2 10.8 8.2-- 5.7 2.3---- 0.0------------
1973-08-19 19.8 25.9 14.7 13.7-- 7.0 1.0---- 0.4------------
1973-08-20 19.4 24.1 14.0 11.7-- 7.3 3.0---- 0.0------------
1973-08-21 16.3 19.0 14.3 13.0-- 4.7 3.0---- 0.0------------
1973-08-22 11.3 18.9 1.5 -1.1-- 2.0 0.7---- 0.0------------
1973-08-23 11.0 21.7 1.5 -1.4-- 0.0 0.7---- 0.0------------
1973-08-24 14.5 25.8 1.5 -0.6-- 1.7 1.0---- 0.0------------
1973-08-25 13.4 22.7 4.7 3.1-- 1.3 1.7---- 0.0------------
1973-08-26 14.4 21.1 6.8 4.9-- 1.3 2.0---- 0.0------------
1973-08-27 13.7 23.3 1.0 -2.3-- 0.0 2.0---- 0.0------------
1973-08-28 15.9 26.3 5.9 1.0-- 1.3 2.0---- 0.0------------
1973-08-29 16.6 26.3 9.8 5.9-- 2.0 1.0---- 0.0------------
1973-08-30 17.3 26.3 4.7 2.4-- 3.3 2.0---- 0.2------------
1973-08-31 13.7 21.9 10.8 8.3-- 8.0 2.0---- 4.5------------
1973-09-01 12.4 16.5 7.3 5.6-- 7.7 4.0---- 3.1------------
1973-09-02 17.0 20.1 14.8 13.3-- 6.3 4.3---- 1.3------------
1973-09-03 15.9 19.4 12.6 9.3-- 7.7 3.0---- 2.8------------
1973-09-04 16.7 19.9 13.8 12.0-- 7.7 0.0---- 0.6------------
1973-09-05 19.9 30.1 10.7 9.7-- 2.0 2.0---- 1.2------------
1973-09-06 19.8 27.8 13.1 11.0-- 2.0 0.7---- 0.0------------
1973-09-07 18.7 26.8 11.9 10.4-- 2.3 2.7---- 0.0------------
1973-09-08 16.6 22.3 14.2 10.9-- 5.3 0.7---- 0.0------------
1973-09-09 16.9 27.6 8.2 6.4-- 2.7 0.7---- 0.7------------
1973-09-10 14.1 19.4 11.3 10.7-- 3.3 3.0---- 0.0------------
1973-09-11 8.6 17.1 -0.7 -2.0-- 3.7 3.0---- 0.0------------
137.4 ms

 

Źródłem pochodzenia danych jest Instytut Meteorologii i Gospodarki Wodnej – Państwowy Instytut Badawczy. Dane Instytutu Meteorologii i Gospodarki Wodnej – Państwowego Instytutu Badawczego zostały przetworzone.

Dane źródłowe można odnaleźć na stronie https://dane.imgw.pl